createdAt,value
2023-02-26T00:00:12.668Z,1.40
2023-02-26T00:02:39.195Z,1.40
2023-02-26T00:05:06.759Z,1.50
2023-02-26T00:07:33.259Z,1.50
2023-02-26T00:10:01.520Z,1.40
2023-02-26T00:12:29.483Z,1.30
2023-02-26T00:14:56.756Z,1.30
2023-02-26T00:18:01.983Z,1.30
2023-02-26T00:20:28.546Z,1.40
2023-02-26T00:22:55.368Z,1.40
2023-02-26T00:25:21.913Z,1.40
2023-02-26T00:27:48.810Z,1.40
2023-02-26T00:30:15.620Z,1.40
2023-02-26T00:32:42.725Z,1.40
2023-02-26T00:35:13.583Z,1.50
2023-02-26T00:37:55.429Z,1.50
2023-02-26T00:40:49.040Z,1.50
2023-02-26T00:43:22.685Z,1.50
2023-02-26T00:46:30.339Z,1.60
2023-02-26T00:49:11.735Z,1.60
2023-02-26T00:51:50.472Z,1.50
2023-02-26T00:54:21.822Z,1.40
2023-02-26T00:56:53.074Z,1.20
2023-02-26T00:59:20.653Z,1.30
2023-02-26T01:01:48.685Z,1.40
2023-02-26T01:04:18.425Z,1.50
2023-02-26T01:06:48.098Z,1.50
2023-02-26T01:09:29.712Z,1.60
2023-02-26T01:12:03.368Z,1.60
2023-02-26T01:14:32.100Z,1.60
2023-02-26T01:17:25.455Z,1.50
2023-02-26T01:20:05.351Z,1.40
2023-02-26T01:22:37.353Z,1.30
2023-02-26T01:25:08.399Z,1.30
2023-02-26T01:27:35.804Z,1.40
2023-02-26T01:30:04.561Z,1.60
2023-02-26T01:32:59.317Z,1.50
2023-02-26T01:35:36.962Z,1.50
2023-02-26T01:38:27.349Z,1.60
2023-02-26T01:41:21.828Z,1.50
2023-02-26T01:44:01.047Z,1.50
2023-02-26T01:46:42.900Z,1.50
2023-02-26T01:49:15.887Z,1.50
2023-02-26T01:51:43.434Z,1.40
2023-02-26T01:54:10.152Z,1.40
2023-02-26T01:56:37.862Z,1.50
2023-02-26T01:59:06.056Z,1.60
2023-02-26T02:01:33.432Z,1.60
2023-02-26T02:04:00.677Z,1.70
2023-02-26T02:06:29.717Z,1.80
2023-02-26T02:08:56.583Z,1.90
2023-02-26T02:11:23.536Z,1.90
2023-02-26T02:14:15.811Z,1.90
2023-02-26T02:17:11.364Z,1.90
2023-02-26T02:19:56.343Z,1.80
2023-02-26T02:22:49.146Z,1.60
2023-02-26T02:25:40.462Z,1.50
2023-02-26T02:28:25.426Z,1.40
2023-02-26T02:31:22.967Z,1.40
2023-02-26T02:33:51.913Z,1.40
2023-02-26T02:36:35.839Z,1.40
2023-02-26T02:39:08.013Z,1.40
2023-02-26T02:41:40.364Z,1.40
2023-02-26T02:44:12.427Z,1.40
2023-02-26T02:46:41.718Z,1.40
2023-02-26T02:49:21.563Z,1.30
2023-02-26T02:51:53.052Z,1.20
2023-02-26T02:54:34.034Z,1.20
2023-02-26T02:57:17.664Z,1.10
2023-02-26T02:59:48.142Z,1.10
2023-02-26T03:02:31.010Z,1.10
2023-02-26T03:04:57.860Z,1.20
2023-02-26T03:07:24.975Z,1.20
2023-02-26T03:09:52.404Z,1.10
2023-02-26T03:12:19.499Z,1.10
2023-02-26T03:14:46.216Z,1.10
2023-02-26T03:17:23.932Z,1.10
2023-02-26T03:19:57.551Z,1.10
2023-02-26T03:22:51.530Z,1.00
2023-02-26T03:25:51.336Z,0.90
2023-02-26T03:28:50.585Z,0.80
2023-02-26T03:31:23.142Z,0.80
2023-02-26T03:34:10.315Z,0.70
2023-02-26T03:36:56.162Z,0.70
2023-02-26T03:39:31.559Z,0.70
2023-02-26T03:42:07.340Z,0.60
2023-02-26T03:45:07.517Z,0.60
2023-02-26T03:47:35.772Z,0.50
2023-02-26T03:50:08.300Z,0.50
2023-02-26T03:52:48.375Z,0.50
2023-02-26T03:55:45.458Z,0.50
2023-02-26T03:58:30.663Z,0.50
2023-02-26T04:01:23.434Z,0.50
2023-02-26T04:03:59.287Z,0.50
2023-02-26T04:06:27.212Z,0.60
2023-02-26T04:08:56.659Z,0.60
2023-02-26T04:11:25.728Z,0.60
2023-02-26T04:13:52.495Z,0.50
2023-02-26T04:16:20.172Z,0.50
2023-02-26T04:18:46.776Z,0.50
2023-02-26T04:21:15.896Z,0.60
2023-02-26T04:23:42.716Z,0.60
2023-02-26T04:26:09.665Z,0.60
2023-02-26T04:28:40.174Z,0.50
2023-02-26T04:31:07.623Z,0.50
2023-02-26T04:33:34.376Z,0.50
2023-02-26T04:36:01.216Z,0.50
2023-02-26T04:38:28.381Z,0.50
2023-02-26T04:40:55.167Z,0.50
2023-02-26T04:43:21.883Z,0.40
2023-02-26T04:46:10.819Z,0.40
2023-02-26T04:48:37.595Z,0.40
2023-02-26T04:51:04.256Z,0.30
2023-02-26T04:53:31.140Z,0.20
2023-02-26T04:55:57.662Z,0.30
2023-02-26T04:58:24.194Z,0.30
2023-02-26T05:00:53.558Z,0.30
2023-02-26T05:03:20.872Z,0.20
2023-02-26T05:05:47.429Z,0.20
2023-02-26T05:08:14.563Z,0.10
2023-02-26T05:10:41.075Z,0.10
2023-02-26T05:13:07.615Z,0.10
2023-02-26T05:15:34.908Z,0.10
2023-02-26T05:18:01.416Z,0.10
2023-02-26T05:20:29.127Z,0.10
2023-02-26T05:22:55.686Z,0.10
2023-02-26T05:25:22.553Z,0.00
2023-02-26T05:27:49.062Z,0.10
2023-02-26T05:30:16.711Z,0.10
2023-02-26T05:32:43.806Z,0.00
2023-02-26T05:35:10.574Z,-0.10
2023-02-26T05:37:37.523Z,-0.10
2023-02-26T05:40:11.510Z,-0.10
2023-02-26T05:42:39.178Z,-0.10
2023-02-26T05:45:06.724Z,-0.10
2023-02-26T05:47:34.400Z,-0.10
2023-02-26T05:50:01.436Z,-0.20
2023-02-26T05:52:28.001Z,-0.20
2023-02-26T05:54:54.698Z,-0.30
2023-02-26T05:57:21.186Z,-0.30
2023-02-26T05:59:47.790Z,-0.30
2023-02-26T06:02:14.553Z,-0.30
2023-02-26T06:04:41.117Z,-0.30
2023-02-26T06:07:07.629Z,-0.30
2023-02-26T06:09:34.160Z,-0.30
2023-02-26T06:12:00.669Z,-0.20
2023-02-26T06:14:27.273Z,-0.30
2023-02-26T06:16:53.781Z,-0.30
2023-02-26T06:19:21.652Z,-0.30
2023-02-26T06:21:48.226Z,-0.30
2023-02-26T06:24:14.844Z,-0.20
2023-02-26T06:26:41.498Z,-0.20
2023-02-26T06:29:08.544Z,-0.20
2023-02-26T06:31:35.167Z,-0.10
2023-02-26T06:34:01.800Z,-0.10
2023-02-26T06:36:28.484Z,0.00
2023-02-26T06:38:55.175Z,0.10
2023-02-26T06:41:21.872Z,0.10
2023-02-26T06:43:48.343Z,0.20
2023-02-26T06:46:14.932Z,0.20
2023-02-26T06:48:41.440Z,0.20
2023-02-26T06:51:07.962Z,0.30
2023-02-26T06:53:34.576Z,0.20
2023-02-26T06:56:01.236Z,0.20
2023-02-26T06:58:27.841Z,0.30
2023-02-26T07:00:54.386Z,0.40
2023-02-26T07:03:21.156Z,0.40
2023-02-26T07:05:47.802Z,0.50
2023-02-26T07:08:14.732Z,0.40
2023-02-26T07:10:41.823Z,0.40
2023-02-26T07:13:08.839Z,0.50
2023-02-26T07:15:35.539Z,0.50
2023-02-26T07:18:02.089Z,0.50
2023-02-26T07:20:29.605Z,0.60
2023-02-26T07:22:56.205Z,0.60
2023-02-26T07:25:22.820Z,0.60
2023-02-26T07:27:49.412Z,0.70
2023-02-26T07:30:16.619Z,0.80
2023-02-26T07:32:43.718Z,0.90
2023-02-26T07:35:10.646Z,1.00
2023-02-26T07:37:37.756Z,1.00
2023-02-26T07:40:05.142Z,1.00
2023-02-26T07:42:31.683Z,1.10
2023-02-26T07:44:59.286Z,1.20
2023-02-26T07:47:26.942Z,1.30
2023-02-26T07:49:53.462Z,1.20
2023-02-26T07:52:20.118Z,1.50
2023-02-26T07:54:46.677Z,1.50
2023-02-26T07:57:13.313Z,1.40
2023-02-26T07:59:39.936Z,1.30
2023-02-26T08:02:07.221Z,1.40
2023-02-26T08:04:34.027Z,1.50
2023-02-26T08:07:01.605Z,1.50
2023-02-26T08:09:28.581Z,1.40
2023-02-26T08:11:55.476Z,1.40
2023-02-26T08:14:23.095Z,1.30
2023-02-26T08:16:49.866Z,1.20
2023-02-26T08:19:19.078Z,1.20
2023-02-26T08:21:45.642Z,1.30
2023-02-26T08:24:12.464Z,1.40
2023-02-26T08:26:39.051Z,1.60
2023-02-26T08:29:05.915Z,1.40
2023-02-26T08:31:34.648Z,1.40
2023-02-26T08:34:01.423Z,1.50
2023-02-26T08:36:30.647Z,1.40
2023-02-26T08:38:58.296Z,1.60
2023-02-26T08:41:29.867Z,1.50
2023-02-26T08:43:56.556Z,1.50
2023-02-26T08:46:23.495Z,1.60
2023-02-26T08:48:50.169Z,1.60
2023-02-26T08:51:16.691Z,1.70
2023-02-26T08:53:45.345Z,1.70
2023-02-26T08:56:12.012Z,1.50
2023-02-26T08:58:38.579Z,1.50
2023-02-26T09:01:05.413Z,1.50
2023-02-26T09:03:32.108Z,1.50
2023-02-26T09:05:58.578Z,1.70
2023-02-26T09:08:25.529Z,1.60
2023-02-26T09:10:52.041Z,1.60
2023-02-26T09:13:19.058Z,1.70
2023-02-26T09:15:45.650Z,1.60
2023-02-26T09:18:15.549Z,1.90
2023-02-26T09:20:43.754Z,2.10
2023-02-26T09:23:10.437Z,2.30
2023-02-26T09:25:37.391Z,2.50
2023-02-26T09:28:04.720Z,2.60
2023-02-26T09:30:31.910Z,2.50
2023-02-26T09:32:58.792Z,2.50
2023-02-26T09:35:25.748Z,2.40
2023-02-26T09:37:52.247Z,2.40
2023-02-26T09:40:32.356Z,2.50
2023-02-26T09:43:13.162Z,2.40
2023-02-26T09:45:44.667Z,2.40
2023-02-26T09:48:15.337Z,2.30
2023-02-26T09:50:53.497Z,2.10
2023-02-26T09:53:24.437Z,2.00
2023-02-26T09:55:53.734Z,2.00
2023-02-26T09:58:31.852Z,2.20
2023-02-26T10:01:19.825Z,2.10
2023-02-26T10:04:14.126Z,2.10
2023-02-26T10:07:25.887Z,1.90
2023-02-26T10:10:15.236Z,1.90
2023-02-26T10:12:44.481Z,1.80
2023-02-26T10:15:40.040Z,2.00
2023-02-26T10:18:17.520Z,2.00
2023-02-26T10:21:08.614Z,1.90
2023-02-26T10:23:44.061Z,2.00
2023-02-26T10:26:29.966Z,2.00
2023-02-26T10:29:23.307Z,2.10
2023-02-26T10:32:17.610Z,2.00
2023-02-26T10:34:54.900Z,2.00
2023-02-26T10:37:41.848Z,2.00
2023-02-26T10:40:28.525Z,2.10
2023-02-26T10:43:04.621Z,2.00
2023-02-26T10:46:07.143Z,2.00
2023-02-26T10:48:59.567Z,2.20
2023-02-26T10:51:33.593Z,2.30
2023-02-26T10:54:10.621Z,2.30
2023-02-26T10:56:37.111Z,2.50
2023-02-26T10:59:03.726Z,2.60
2023-02-26T11:01:31.268Z,2.60
2023-02-26T11:04:12.461Z,2.60
2023-02-26T11:06:43.357Z,2.60
2023-02-26T11:09:22.522Z,2.60
2023-02-26T11:11:53.856Z,2.70
2023-02-26T11:14:22.084Z,2.80
2023-02-26T11:17:01.585Z,2.80
2023-02-26T11:19:38.145Z,2.90
2023-02-26T11:22:07.827Z,2.90
2023-02-26T11:24:40.425Z,3.10
2023-02-26T11:27:13.692Z,3.10
2023-02-26T11:29:42.956Z,3.20
2023-02-26T11:32:23.100Z,3.20
2023-02-26T11:34:52.012Z,3.20
2023-02-26T11:37:34.045Z,3.10
2023-02-26T11:40:25.241Z,3.10
2023-02-26T11:43:00.477Z,3.20
2023-02-26T11:45:27.295Z,3.20
2023-02-26T11:48:02.353Z,3.20
2023-02-26T11:50:31.046Z,3.20
2023-02-26T11:53:07.320Z,3.40
2023-02-26T11:55:38.530Z,3.30
2023-02-26T11:58:17.448Z,3.20
2023-02-26T12:00:45.009Z,3.00
2023-02-26T12:03:22.122Z,3.00
2023-02-26T12:05:50.198Z,3.00
2023-02-26T12:08:25.473Z,2.80
2023-02-26T12:10:57.933Z,2.80
2023-02-26T12:13:34.111Z,2.80
2023-02-26T12:16:17.197Z,2.80
2023-02-26T12:19:01.394Z,3.00
2023-02-26T12:21:57.957Z,3.00
2023-02-26T12:24:47.945Z,3.00
2023-02-26T12:27:49.319Z,3.10
2023-02-26T12:30:40.530Z,3.10
2023-02-26T12:33:31.650Z,3.30
2023-02-26T12:36:17.533Z,3.40
2023-02-26T12:39:15.674Z,3.60
2023-02-26T12:41:44.933Z,3.50
2023-02-26T12:44:40.560Z,3.50
2023-02-26T12:47:37.811Z,3.40
2023-02-26T12:50:36.772Z,3.50
2023-02-26T12:53:34.948Z,3.50
2023-02-26T12:56:39.358Z,3.60
2023-02-26T12:59:44.495Z,3.70
2023-02-26T13:02:45.186Z,3.70
2023-02-26T13:05:27.069Z,3.60
2023-02-26T13:08:28.073Z,3.60
2023-02-26T13:11:11.726Z,3.60
2023-02-26T13:13:50.436Z,3.70
2023-02-26T13:16:39.156Z,3.70
2023-02-26T13:19:21.713Z,3.70
2023-02-26T13:21:53.248Z,3.60
2023-02-26T13:24:30.745Z,3.60
2023-02-26T13:26:57.533Z,3.50
2023-02-26T13:29:40.285Z,3.50
2023-02-26T13:32:14.581Z,3.40
2023-02-26T13:34:52.719Z,3.60
2023-02-26T13:37:33.111Z,3.60
2023-02-26T13:40:18.492Z,3.60
2023-02-26T13:43:06.799Z,3.60
2023-02-26T13:45:45.549Z,3.60
2023-02-26T13:48:39.623Z,3.60
2023-02-26T13:51:06.144Z,3.50
2023-02-26T13:53:33.609Z,3.50
2023-02-26T13:56:32.457Z,3.50
2023-02-26T13:59:15.547Z,3.70
2023-02-26T14:01:46.894Z,3.70
2023-02-26T14:04:22.577Z,3.80
2023-02-26T14:06:56.498Z,3.80
2023-02-26T14:09:23.045Z,3.90
2023-02-26T14:12:08.964Z,3.90
2023-02-26T14:14:43.261Z,4.00
2023-02-26T14:17:09.943Z,3.90
2023-02-26T14:19:47.638Z,4.00
2023-02-26T14:22:31.174Z,4.00
2023-02-26T14:25:05.350Z,4.00
2023-02-26T14:27:35.918Z,4.00
2023-02-26T14:30:30.819Z,3.90
2023-02-26T14:32:57.444Z,3.80
2023-02-26T14:35:35.106Z,3.70
2023-02-26T14:38:12.664Z,3.80
2023-02-26T14:40:45.755Z,3.90
2023-02-26T14:43:44.318Z,3.80
2023-02-26T14:46:11.350Z,3.70
2023-02-26T14:48:39.056Z,3.70
2023-02-26T14:51:32.675Z,3.60
2023-02-26T14:54:24.583Z,3.70
2023-02-26T14:57:10.106Z,3.70
2023-02-26T14:59:39.219Z,3.70
2023-02-26T15:02:18.843Z,3.60
2023-02-26T15:04:57.266Z,3.60
2023-02-26T15:07:42.559Z,3.50
2023-02-26T15:10:33.934Z,3.50
2023-02-26T15:13:25.960Z,3.60
2023-02-26T15:16:02.725Z,3.60
2023-02-26T15:19:06.280Z,3.60
2023-02-26T15:21:57.876Z,3.50
2023-02-26T15:24:24.557Z,3.50
2023-02-26T15:27:00.083Z,3.30
2023-02-26T15:29:31.272Z,3.30
2023-02-26T15:32:13.291Z,3.50
2023-02-26T15:34:45.775Z,3.50
2023-02-26T15:37:21.986Z,3.50
2023-02-26T15:39:50.122Z,3.60
2023-02-26T15:42:19.451Z,3.50
2023-02-26T15:44:56.760Z,3.40
2023-02-26T15:47:24.311Z,3.40
2023-02-26T15:49:51.033Z,3.60
2023-02-26T15:52:21.572Z,3.50
2023-02-26T15:54:53.214Z,3.40
2023-02-26T15:57:22.037Z,3.30
2023-02-26T15:59:52.405Z,3.50
2023-02-26T16:02:29.868Z,3.40
2023-02-26T16:04:56.352Z,3.40
2023-02-26T16:07:23.527Z,3.40
2023-02-26T16:09:52.172Z,3.40
2023-02-26T16:12:20.049Z,3.30
2023-02-26T16:14:53.499Z,3.20
2023-02-26T16:17:27.072Z,3.10
2023-02-26T16:19:55.883Z,3.00
2023-02-26T16:22:28.553Z,3.00
2023-02-26T16:25:02.647Z,2.90
2023-02-26T16:27:31.796Z,2.80
2023-02-26T16:30:00.431Z,2.70
2023-02-26T16:32:31.675Z,2.80
2023-02-26T16:35:00.842Z,2.70
2023-02-26T16:37:33.825Z,2.60
2023-02-26T16:40:26.354Z,2.60
2023-02-26T16:43:06.152Z,2.50
2023-02-26T16:45:35.997Z,2.50
2023-02-26T16:48:06.595Z,2.50
2023-02-26T16:50:35.301Z,2.40
2023-02-26T16:53:08.199Z,2.40
2023-02-26T16:55:39.380Z,2.40
2023-02-26T16:58:11.943Z,2.40
2023-02-26T17:00:38.840Z,2.40
2023-02-26T17:03:16.508Z,2.40
2023-02-26T17:06:09.469Z,2.40
2023-02-26T17:08:46.335Z,2.30
2023-02-26T17:11:27.236Z,2.40
2023-02-26T17:14:15.348Z,2.40
2023-02-26T17:16:41.907Z,2.30
2023-02-26T17:19:09.520Z,2.20
2023-02-26T17:21:42.395Z,2.20
2023-02-26T17:24:21.048Z,2.20
2023-02-26T17:26:48.594Z,2.20
2023-02-26T17:29:19.502Z,2.20
2023-02-26T17:31:46.369Z,2.20
2023-02-26T17:34:13.186Z,2.20
2023-02-26T17:36:39.689Z,2.10
2023-02-26T17:39:06.434Z,2.00
2023-02-26T17:41:34.253Z,2.10
2023-02-26T17:44:01.422Z,2.00
2023-02-26T17:46:28.177Z,2.00
2023-02-26T17:48:54.731Z,2.00
2023-02-26T17:51:21.398Z,2.00
2023-02-26T17:53:48.811Z,2.10
2023-02-26T17:56:21.768Z,2.00
2023-02-26T17:58:49.345Z,2.00
2023-02-26T18:01:16.473Z,1.90
2023-02-26T18:03:43.445Z,2.00
2023-02-26T18:06:14.099Z,2.00
2023-02-26T18:08:40.831Z,2.10
2023-02-26T18:11:07.992Z,2.00
2023-02-26T18:13:34.564Z,2.00
2023-02-26T18:16:02.782Z,2.00
2023-02-26T18:18:30.230Z,1.90
2023-02-26T18:20:56.802Z,1.90
2023-02-26T18:23:24.124Z,2.00
2023-02-26T18:25:52.787Z,1.90
2023-02-26T18:28:25.071Z,1.90
2023-02-26T18:30:52.777Z,1.90
2023-02-26T18:33:20.191Z,1.90
2023-02-26T18:35:53.004Z,1.90
2023-02-26T18:38:22.130Z,1.90
2023-02-26T18:40:49.163Z,1.80
2023-02-26T18:43:16.313Z,1.90
2023-02-26T18:45:44.513Z,1.90
2023-02-26T18:48:13.918Z,1.90
2023-02-26T18:50:40.730Z,1.80
2023-02-26T18:53:07.329Z,1.70
2023-02-26T18:55:36.369Z,1.70
2023-02-26T18:58:04.500Z,1.60
2023-02-26T19:00:31.356Z,1.70
2023-02-26T19:02:58.458Z,1.70
2023-02-26T19:05:26.586Z,1.70
2023-02-26T19:07:54.681Z,1.60
2023-02-26T19:10:22.039Z,1.60
2023-02-26T19:12:50.786Z,1.70
2023-02-26T19:15:18.118Z,1.60
2023-02-26T19:17:45.070Z,1.60
2023-02-26T19:20:12.887Z,1.50
2023-02-26T19:22:42.262Z,1.40
2023-02-26T19:25:10.133Z,1.50
2023-02-26T19:27:38.026Z,1.50
2023-02-26T19:30:06.604Z,1.40
2023-02-26T19:32:33.436Z,1.40
2023-02-26T19:35:00.241Z,1.40
2023-02-26T19:37:27.087Z,1.50
2023-02-26T19:39:53.734Z,1.50
2023-02-26T19:42:20.692Z,1.40
2023-02-26T19:44:47.255Z,1.30
2023-02-26T19:47:13.759Z,1.30
2023-02-26T19:49:44.236Z,1.30
2023-02-26T19:52:12.056Z,1.30
2023-02-26T19:54:38.812Z,1.40
2023-02-26T19:57:05.304Z,1.30
2023-02-26T19:59:32.284Z,1.30
2023-02-26T20:01:59.117Z,1.20
2023-02-26T20:04:25.695Z,1.20
2023-02-26T20:06:52.452Z,1.20
2023-02-26T20:09:20.114Z,1.10
2023-02-26T20:11:46.731Z,1.10
2023-02-26T20:14:13.296Z,1.10
2023-02-26T20:16:40.169Z,1.10
2023-02-26T20:19:06.709Z,1.10
2023-02-26T20:21:33.277Z,1.10
2023-02-26T20:23:59.928Z,1.00
2023-02-26T20:26:26.542Z,1.00
2023-02-26T20:28:53.101Z,1.00
2023-02-26T20:31:20.102Z,0.90
2023-02-26T20:33:46.699Z,0.90
2023-02-26T20:36:13.532Z,1.00
2023-02-26T20:38:40.477Z,1.00
2023-02-26T20:41:07.003Z,0.90
2023-02-26T20:43:33.575Z,0.90
2023-02-26T20:46:00.366Z,0.80
2023-02-26T20:48:27.326Z,0.80
2023-02-26T20:51:00.369Z,0.80
2023-02-26T20:53:26.920Z,0.80
2023-02-26T20:55:55.269Z,0.70
2023-02-26T20:58:21.822Z,0.70
2023-02-26T21:00:48.407Z,0.70
2023-02-26T21:03:15.212Z,0.70
2023-02-26T21:05:42.943Z,0.60
2023-02-26T21:08:10.553Z,0.70
2023-02-26T21:10:37.138Z,0.60
2023-02-26T21:13:03.811Z,0.60
2023-02-26T21:15:30.360Z,0.60
2023-02-26T21:17:56.891Z,0.60
2023-02-26T21:20:23.509Z,0.60
2023-02-26T21:22:50.340Z,0.60
2023-02-26T21:25:17.620Z,0.60
2023-02-26T21:27:44.538Z,0.50
2023-02-26T21:30:12.222Z,0.50
2023-02-26T21:32:39.612Z,0.50
2023-02-26T21:35:07.503Z,0.50
2023-02-26T21:37:34.135Z,0.50
2023-02-26T21:40:00.742Z,0.50
2023-02-26T21:42:27.589Z,0.50
2023-02-26T21:44:54.128Z,0.40
2023-02-26T21:47:20.684Z,0.40
2023-02-26T21:49:47.219Z,0.40
2023-02-26T21:52:13.813Z,0.30
2023-02-26T21:54:40.880Z,0.30
2023-02-26T21:57:07.793Z,0.40
2023-02-26T21:59:34.786Z,0.30
2023-02-26T22:02:02.012Z,0.30
2023-02-26T22:04:28.696Z,0.30
2023-02-26T22:06:55.292Z,0.20
2023-02-26T22:09:22.880Z,0.20
2023-02-26T22:11:49.589Z,0.20
2023-02-26T22:14:16.590Z,0.20
2023-02-26T22:16:43.185Z,0.20
2023-02-26T22:19:09.751Z,0.20
2023-02-26T22:21:36.270Z,0.20
2023-02-26T22:24:03.762Z,0.20
2023-02-26T22:26:30.743Z,0.20
2023-02-26T22:28:59.610Z,0.10
2023-02-26T22:31:31.885Z,0.10
2023-02-26T22:33:59.315Z,0.10
2023-02-26T22:36:26.040Z,0.20
2023-02-26T22:38:52.553Z,0.10
2023-02-26T22:41:19.105Z,0.10
2023-02-26T22:43:45.625Z,0.10
2023-02-26T22:46:12.147Z,0.10
2023-02-26T22:48:38.708Z,0.10
2023-02-26T22:51:05.597Z,0.10
2023-02-26T22:53:32.311Z,0.10
2023-02-26T22:55:59.165Z,0.10
2023-02-26T22:58:25.855Z,0.00
2023-02-26T23:01:02.186Z,0.00
2023-02-26T23:03:29.444Z,0.10
2023-02-26T23:05:56.752Z,0.00
2023-02-26T23:08:23.442Z,0.00
2023-02-26T23:10:50.108Z,0.00
2023-02-26T23:13:16.645Z,0.00
2023-02-26T23:15:43.277Z,0.00
2023-02-26T23:18:09.862Z,-0.10
2023-02-26T23:20:36.413Z,-0.10
2023-02-26T23:23:03.268Z,0.00
2023-02-26T23:25:29.834Z,-0.10
2023-02-26T23:27:56.604Z,0.00
2023-02-26T23:30:23.701Z,-0.10
2023-02-26T23:32:50.992Z,-0.10
2023-02-26T23:35:17.633Z,-0.10
2023-02-26T23:37:44.161Z,-0.10
2023-02-26T23:40:14.504Z,-0.20
2023-02-26T23:42:42.206Z,-0.20
2023-02-26T23:45:09.387Z,-0.20
2023-02-26T23:47:36.168Z,-0.20
2023-02-26T23:50:03.408Z,-0.20
2023-02-26T23:52:30.067Z,-0.20
2023-02-26T23:54:57.409Z,-0.20
2023-02-26T23:57:24.517Z,-0.20
2023-02-26T23:59:51.051Z,-0.30
